Baby Rock, Arizona
Current Conditions -  °F | °C
As of 10:53 AM on Saturday 20 Dec 2014 (Local Time) from KPGA Reporting Station
Overcast Overcast  
Wind Chill: 35°   Ceiling: 2000
Heat Index: 39°   Visibility: 10mi
Dew Point: 29°   Wind: 6mph
Humidity: 67%   Direction: NA
Pressure: 30.22"   Gusts: NA
Location:  36.6859°N, 110.268°W
Report Text: KPGA 201753Z AUTO VRB05KT 10SM OVC020 04/M02 A3022 RMK AO2 SLP233 T00391017 10044 20006 53007 TSNO
Loading
Personal Weather Stations






























Interactive Weather Map New forecast layout! Learn more

10-Day Weather Forecast

Advertisements
Track Severe Weather on mobile